Time;durP1;ratioP1;P1;durP2;ratioP2;P2;SDS_P1;SDS_P2;PMS_P1;PMS_P2;Temp;Humidity;BMP_temperature;BMP_pressure;BME280_temperature;BME280_humidity;BME280_pressure;Samples;Min_cycle;Max_cycle;Signal;HPM_P1;HPM_P2
2021/10/27 00:02:31;;;;;;;114.70;53.42;;;;;;;0.70;64.80;101954.83;1771295;81;21209;-54
2021/10/27 00:05:39;;;;;;;132.60;57.70;;;;;;;0.64;64.87;101955.13;1771258;81;21232;-54
2021/10/27 00:08:44;;;;;;;129.42;59.55;;;;;;;0.59;64.86;101959.87;1771238;80;21205;-54
2021/10/27 00:11:49;;;;;;;119.35;56.73;;;;;;;0.56;64.94;101956.44;1771522;80;21215;-53
2021/10/27 00:14:56;;;;;;;120.15;53.55;;;;;;;0.53;65.07;101960.17;1771204;80;21236;-53
2021/10/27 00:18:02;;;;;;;128.68;57.27;;;;;;;0.50;65.17;101950.01;1771471;80;21694;-55
2021/10/27 00:21:07;;;;;;;123.55;56.88;;;;;;;0.48;65.32;101940.66;1770995;80;21189;-55
2021/10/27 00:24:13;;;;;;;123.95;58.38;;;;;;;0.47;65.39;101942.96;1771873;80;21363;-54
2021/10/27 00:27:20;;;;;;;117.40;54.95;;;;;;;0.42;65.42;101930.65;1771921;80;21825;-55
2021/10/27 00:30:25;;;;;;;117.00;54.60;;;;;;;0.35;65.46;101941.33;1771425;81;21216;-55
2021/10/27 00:33:31;;;;;;;125.53;58.23;;;;;;;0.31;65.68;101937.02;1771566;80;21186;-54
2021/10/27 00:36:37;;;;;;;111.08;56.02;;;;;;;0.29;65.88;101942.48;1771203;80;21264;-55
2021/10/27 00:39:47;;;;;;;114.17;55.40;;;;;;;0.28;66.01;101942.55;1771398;81;21201;-54
2021/10/27 00:42:53;;;;;;;125.12;55.50;;;;;;;0.24;66.07;101940.48;1771099;81;21158;-55
2021/10/27 00:45:58;;;;;;;108.45;53.45;;;;;;;0.17;66.18;101932.30;1771595;80;21201;-53
2021/10/27 00:49:03;;;;;;;112.00;53.95;;;;;;;0.13;66.48;101933.38;1771329;80;21240;-55
2021/10/27 00:52:10;;;;;;;121.90;53.38;;;;;;;0.08;66.69;101930.02;1771331;81;21188;-55
2021/10/27 00:55:16;;;;;;;97.37;49.95;;;;;;;0.05;66.89;101927.48;1771126;81;21636;-53
2021/10/27 00:58:21;;;;;;;103.15;50.67;;;;;;;0.03;67.16;101926.70;1771487;80;21181;-54
2021/10/27 01:01:26;;;;;;;101.90;48.30;;;;;;;0.00;67.48;101926.84;1771023;80;21197;-54
2021/10/27 01:04:32;;;;;;;96.22;47.83;;;;;;;-0.01;67.68;101927.31;1769299;80;21304;-55
2021/10/27 01:07:39;;;;;;;98.17;48.95;;;;;;;-0.01;67.91;101920.58;1771449;80;21343;-54
2021/10/27 01:10:44;;;;;;;100.82;49.30;;;;;;;-0.04;67.95;101919.38;1771167;81;21205;-54
2021/10/27 01:13:50;;;;;;;94.50;47.23;;;;;;;-0.06;68.13;101921.27;1771348;80;21650;-55
2021/10/27 01:16:57;;;;;;;101.40;48.00;;;;;;;-0.07;68.19;101919.52;1764778;81;21324;-55
2021/10/27 01:20:08;;;;;;;97.95;50.20;;;;;;;-0.08;68.36;101907.48;1771416;80;21291;-54
2021/10/27 01:23:14;;;;;;;111.85;49.48;;;;;;;-0.09;68.35;101901.68;1771255;80;21240;-54
2021/10/27 01:26:20;;;;;;;99.65;47.88;;;;;;;-0.10;68.31;101900.83;1771394;80;21233;-57
2021/10/27 01:29:26;;;;;;;94.00;45.03;;;;;;;-0.13;68.23;101898.75;1771310;81;21836;-54
2021/10/27 01:32:43;;;;;;;87.62;40.20;;;;;;;-0.14;68.35;101896.52;1771206;81;21200;-53
2021/10/27 01:35:41;;;;;;;91.30;46.23;;;;;;;-0.14;68.55;101896.98;1771276;81;21181;-55
2021/10/27 01:38:47;;;;;;;83.10;38.45;;;;;;;-0.11;68.73;101896.84;1771092;80;21243;-55
2021/10/27 01:41:54;;;;;;;76.85;37.50;;;;;;;-0.08;68.82;101896.72;1763815;81;21328;-56
2021/10/27 01:45:00;;;;;;;59.80;32.38;;;;;;;-0.05;69.06;101896.58;1771450;81;21324;-54
2021/10/27 01:48:08;;;;;;;73.47;34.67;;;;;;;-0.02;69.21;101897.77;1771650;80;21170;-53
2021/10/27 01:51:14;;;;;;;69.00;34.03;;;;;;;0.02;69.40;101902.55;1771566;80;21216;-53
2021/10/27 01:54:21;;;;;;;62.75;30.30;;;;;;;0.06;69.45;101899.63;1772330;80;21181;-54
2021/10/27 01:57:28;;;;;;;57.20;29.70;;;;;;;0.10;69.57;101890.45;1762266;81;21193;-54
2021/10/27 02:00:33;;;;;;;72.00;33.38;;;;;;;0.13;69.57;101894.34;1771441;81;21706;-55
2021/10/27 02:03:40;;;;;;;76.25;37.93;;;;;;;0.14;69.59;101896.11;1771462;80;21149;-54
2021/10/27 02:06:39;;;;;;;78.72;39.70;;;;;;;0.13;69.45;101888.95;1769144;79;21211;-54
2021/10/27 02:09:31;;;;;;;79.47;36.60;;;;;;;0.11;69.22;101881.91;1767951;81;21177;-54
2021/10/27 02:12:37;;;;;;;74.22;36.35;;;;;;;0.08;69.14;101883.41;1767994;81;21271;-54
2021/10/27 02:15:43;;;;;;;76.30;35.48;;;;;;;0.06;69.25;101892.02;1767912;81;21193;-55
2021/10/27 02:18:49;;;;;;;74.75;36.42;;;;;;;0.07;69.39;101894.64;1767921;81;21187;-54
2021/10/27 02:21:56;;;;;;;68.02;34.88;;;;;;;0.06;69.36;101898.28;1768003;81;21200;-55
2021/10/27 02:25:02;;;;;;;65.35;32.85;;;;;;;0.01;69.19;101905.70;1767930;81;21227;-54
2021/10/27 02:28:09;;;;;;;69.47;33.42;;;;;;;-0.03;69.29;101894.66;1767955;81;21182;-55
2021/10/27 02:31:14;;;;;;;60.63;31.45;;;;;;;-0.06;69.35;101900.19;1767903;81;21207;-54
2021/10/27 02:34:20;;;;;;;60.40;30.55;;;;;;;-0.10;69.43;101898.60;1767924;81;21254;-54
2021/10/27 02:37:25;;;;;;;55.75;30.45;;;;;;;-0.14;69.51;101896.52;1768247;81;21254;-54
2021/10/27 02:40:30;;;;;;;58.08;31.80;;;;;;;-0.21;69.50;101888.81;1768185;81;21294;-54
2021/10/27 02:43:35;;;;;;;64.10;32.00;;;;;;;-0.28;69.47;101892.25;1767671;81;21176;-56
2021/10/27 02:46:42;;;;;;;56.20;29.37;;;;;;;-0.34;69.53;101880.89;1767881;81;21211;-53
2021/10/27 02:49:48;;;;;;;59.58;30.62;;;;;;;-0.39;69.67;101881.11;1767955;81;21235;-55
2021/10/27 02:52:54;;;;;;;48.83;25.25;;;;;;;-0.41;69.92;101879.41;1767320;81;21260;-54
2021/10/27 02:55:59;;;;;;;52.17;27.60;;;;;;;-0.41;70.31;101892.86;1767438;81;21886;-54
2021/10/27 02:59:04;;;;;;;63.68;31.85;;;;;;;-0.35;71.00;101889.42;1767849;81;21164;-55
2021/10/27 03:02:10;;;;;;;62.90;29.87;;;;;;;-0.34;71.19;101890.31;1767919;81;21271;-54
2021/10/27 03:05:16;;;;;;;59.05;30.43;;;;;;;-0.37;71.00;101891.34;1751177;81;21331;-55
2021/10/27 03:08:23;;;;;;;64.27;31.48;;;;;;;-0.42;70.83;101892.47;1759339;80;21354;-56
2021/10/27 03:11:29;;;;;;;65.62;32.67;;;;;;;-0.48;70.79;101886.03;1773276;80;21201;-55
2021/10/27 03:14:35;;;;;;;60.48;29.45;;;;;;;-0.53;71.02;101886.70;1773367;80;21343;-55
2021/10/27 03:17:40;;;;;;;67.25;31.27;;;;;;;-0.55;71.10;101884.55;1773183;80;21197;-55
2021/10/27 03:20:46;;;;;;;66.80;32.05;;;;;;;-0.57;71.03;101900.76;1773136;80;21339;-54
2021/10/27 03:23:51;;;;;;;58.73;31.77;;;;;;;-0.63;70.85;101894.78;1773753;80;21297;-55
2021/10/27 03:26:57;;;;;;;59.60;31.57;;;;;;;-0.69;70.96;101894.59;1773116;80;21197;-55
2021/10/27 03:30:03;;;;;;;60.70;30.72;;;;;;;-0.72;71.16;101888.47;1772458;80;21414;-54
2021/10/27 03:33:08;;;;;;;68.57;32.33;;;;;;;-0.74;71.36;101884.51;1772439;81;21213;-55
2021/10/27 03:36:14;;;;;;;54.42;29.95;;;;;;;-0.73;71.48;101878.67;1772599;80;21339;-55
2021/10/27 03:39:20;;;;;;;69.97;31.35;;;;;;;-0.72;71.69;101873.69;1772708;80;21362;-56
2021/10/27 03:42:26;;;;;;;61.63;32.65;;;;;;;-0.73;71.76;101878.67;1772940;80;21229;-55
2021/10/27 03:45:31;;;;;;;67.42;31.50;;;;;;;-0.74;71.75;101875.56;1773985;80;21403;-56
2021/10/27 03:48:37;;;;;;;65.28;30.37;;;;;;;-0.74;71.86;101867.50;1773036;80;21276;-56
2021/10/27 03:51:43;;;;;;;60.58;30.10;;;;;;;-0.76;71.97;101863.53;1773165;80;21820;-56
2021/10/27 03:54:49;;;;;;;55.12;26.35;;;;;;;-0.78;71.92;101861.41;1773127;81;21378;-55
2021/10/27 03:57:58;;;;;;;54.67;25.92;;;;;;;-0.79;71.92;101862.78;1773029;81;21177;-55
2021/10/27 04:01:02;;;;;;;59.77;27.95;;;;;;;-0.81;72.14;101853.94;1773103;80;21331;-55
2021/10/27 04:04:08;;;;;;;52.08;27.55;;;;;;;-0.79;72.28;101854.72;1772784;80;21185;-56
2021/10/27 04:07:16;;;;;;;49.05;25.27;;;;;;;-0.77;72.49;101853.73;1773238;80;21370;-57
2021/10/27 04:10:26;;;;;;;53.15;26.37;;;;;;;-0.74;73.00;101859.43;1773110;80;21355;-56
2021/10/27 04:13:33;;;;;;;54.75;28.10;;;;;;;-0.68;73.46;101857.34;1772576;80;21304;-55
2021/10/27 04:16:39;;;;;;;60.30;28.00;;;;;;;-0.62;73.75;101862.93;1772467;81;21422;-55
2021/10/27 04:19:45;;;;;;;65.55;30.62;;;;;;;-0.57;73.86;101862.26;1772724;80;21892;-56
2021/10/27 04:22:50;;;;;;;62.20;29.32;;;;;;;-0.54;73.96;101847.33;1772892;80;21805;-56
2021/10/27 04:25:55;;;;;;;70.55;28.55;;;;;;;-0.49;74.10;101846.16;1773103;80;21213;-55
2021/10/27 04:29:01;;;;;;;56.50;28.40;;;;;;;-0.45;74.02;101853.16;1772645;80;21343;-55
2021/10/27 04:32:06;;;;;;;60.43;29.02;;;;;;;-0.46;73.70;101845.16;1772748;80;21805;-56
2021/10/27 04:35:12;;;;;;;75.32;35.15;;;;;;;-0.47;73.42;101851.46;1772767;80;21378;-56
2021/10/27 04:38:22;;;;;;;71.30;35.60;;;;;;;-0.51;73.41;101854.76;1767139;80;21248;-55
2021/10/27 04:41:30;;;;;;;72.65;34.60;;;;;;;-0.52;73.70;101852.14;1772823;80;21178;-55
2021/10/27 04:44:36;;;;;;;66.17;33.83;;;;;;;-0.51;73.83;101844.49;1763300;81;21698;-56
2021/10/27 04:47:45;;;;;;;63.23;33.78;;;;;;;-0.52;73.53;101853.02;1760744;81;21203;-56
2021/10/27 04:50:49;;;;;;;68.97;33.53;;;;;;;-0.56;73.16;101847.40;1742824;81;21255;-55
2021/10/27 04:53:54;;;;;;;66.50;34.67;;;;;;;-0.61;73.01;101849.42;1759316;81;21205;-55
2021/10/27 04:57:01;;;;;;;65.05;32.05;;;;;;;-0.61;73.05;101859.29;1759653;81;21200;-55
2021/10/27 05:00:08;;;;;;;77.45;33.20;;;;;;;-0.60;73.29;101855.19;1763427;80;21730;-56
2021/10/27 05:03:14;;;;;;;77.45;32.90;;;;;;;-0.53;73.60;101851.75;1757809;81;21813;-56
2021/10/27 05:06:22;;;;;;;72.22;30.62;;;;;;;-0.45;74.01;101856.31;1738582;82;21815;-56
2021/10/27 05:09:28;;;;;;;71.15;32.98;;;;;;;-0.37;74.31;101844.73;1728580;80;21292;-56
2021/10/27 05:12:33;;;;;;;67.75;30.45;;;;;;;-0.28;74.45;101840.25;1737369;82;21181;-53
2021/10/27 05:15:42;;;;;;;60.30;28.05;;;;;;;-0.21;74.59;101841.23;1751744;81;21251;-56
2021/10/27 05:18:48;;;;;;;59.38;29.40;;;;;;;-0.11;74.89;101845.24;1759201;81;21192;-56
2021/10/27 05:21:53;;;;;;;56.55;29.45;;;;;;;0.01;75.18;101850.52;1751304;81;21257;-56
2021/10/27 05:25:06;;;;;;;55.95;29.18;;;;;;;0.11;75.28;101850.49;1769819;80;21706;-55
2021/10/27 05:28:11;;;;;;;58.58;28.95;;;;;;;0.21;75.58;101846.38;1740124;81;21256;-56
2021/10/27 05:31:16;;;;;;;50.30;26.07;;;;;;;0.32;75.68;101851.27;1739574;82;21398;-56
2021/10/27 05:34:24;;;;;;;50.50;26.93;;;;;;;0.43;75.96;101854.30;1739660;82;21212;-56
2021/10/27 05:37:32;;;;;;;46.05;26.80;;;;;;;0.53;76.29;101855.10;1762263;81;21178;-55
2021/10/27 05:40:38;;;;;;;50.78;26.25;;;;;;;0.64;76.55;101855.44;1746750;81;21217;-55
2021/10/27 05:43:45;;;;;;;44.85;25.17;;;;;;;0.75;76.75;101854.42;1770039;80;21327;-57
2021/10/27 05:46:52;;;;;;;45.55;25.12;;;;;;;0.86;76.94;101861.95;1766829;80;21295;-57
2021/10/27 05:56:47;;;;;;;55.45;28.45;;;;;;;1.24;77.63;101877.02;1765179;81;21355;-55
2021/10/27 05:59:52;;;;;;;49.35;26.75;;;;;;;1.39;77.95;101878.45;1770515;80;21201;-55
2021/10/27 06:02:59;;;;;;;48.48;26.45;;;;;;;1.55;78.16;101873.95;1770947;80;21232;-56
2021/10/27 06:06:04;;;;;;;54.73;28.07;;;;;;;1.70;78.31;101870.06;1771244;80;21914;-55
2021/10/27 06:09:11;;;;;;;54.93;28.55;;;;;;;1.84;78.33;101865.62;1770497;80;21379;-57
2021/10/27 06:12:18;;;;;;;49.40;28.67;;;;;;;1.98;78.37;101851.38;1760356;79;21264;-58
2021/10/27 06:15:28;;;;;;;47.23;27.75;;;;;;;2.12;78.42;101855.52;1770669;80;21209;-56
2021/10/27 06:18:36;;;;;;;44.67;23.92;;;;;;;2.27;78.46;101844.72;1770631;80;21259;-55
2021/10/27 06:21:45;;;;;;;48.75;24.40;;;;;;;2.39;78.48;101845.38;1769193;80;21213;-56
2021/10/27 06:24:54;;;;;;;38.92;21.57;;;;;;;2.53;78.62;101842.75;1734465;82;21216;-54
2021/10/27 06:28:10;;;;;;;37.55;18.75;;;;;;;2.69;78.86;101832.78;1740404;82;21666;-55
2021/10/27 06:31:20;;;;;;;27.82;16.97;;;;;;;2.88;79.13;101829.84;1766640;81;21329;-56
2021/10/27 06:37:52;;;;;;;42.35;23.67;;;;;;;3.22;79.32;101845.77;1757658;81;21215;-54
2021/10/27 06:47:43;;;;;;;39.73;20.08;;;;;;;3.71;79.15;101835.49;1760997;81;21203;-55
2021/10/27 06:50:54;;;;;;;35.63;18.95;;;;;;;3.86;78.95;101842.16;1764826;81;21223;-55
2021/10/27 06:54:02;;;;;;;29.02;17.10;;;;;;;4.01;78.73;101833.03;1761135;81;21191;-53
2021/10/27 06:57:09;;;;;;;24.65;16.67;;;;;;;4.15;78.50;101837.09;1765930;81;21257;-55
2021/10/27 07:00:28;;;;;;;24.40;16.00;;;;;;;4.27;78.21;101832.70;1752578;81;21223;-55
2021/10/27 07:03:47;;;;;;;30.05;16.10;;;;;;;4.37;77.94;101826.59;1758236;81;21227;-55
2021/10/27 07:17:03;;;;;;;28.83;16.90;;;;;;;4.83;77.06;101818.06;1739269;82;21329;-57
2021/10/27 07:20:13;;;;;;;33.08;16.87;;;;;;;4.95;76.83;101818.61;1739379;82;21220;-54
2021/10/27 07:23:19;;;;;;;25.95;14.63;;;;;;;5.05;76.65;101814.27;1739888;82;21978;-55
2021/10/27 07:26:26;;;;;;;23.83;14.63;;;;;;;5.17;76.34;101813.44;1739753;82;21784;-55
2021/10/27 07:29:32;;;;;;;27.15;13.68;;;;;;;5.27;76.01;101815.86;1739601;82;21741;-56
2021/10/27 07:32:42;;;;;;;25.92;15.32;;;;;;;5.37;75.69;101802.92;1762590;81;21268;-55
2021/10/27 07:36:10;;;;;;;28.35;15.98;;;;;;;5.49;75.36;101799.80;1762023;79;21196;-54
2021/10/27 07:42:42;;;;;;;25.30;14.55;;;;;;;5.74;74.43;101791.66;1768667;80;21744;-55
2021/10/27 07:45:53;;;;;;;27.60;14.68;;;;;;;5.85;73.94;101787.20;1768134;80;21280;-55
2021/10/27 07:48:58;;;;;;;25.50;12.20;;;;;;;5.96;73.60;101785.08;1739825;82;21514;-55
2021/10/27 07:52:05;;;;;;;20.97;11.65;;;;;;;6.07;73.27;101777.00;1766002;81;21196;-55
2021/10/27 07:55:09;;;;;;;26.30;12.07;;;;;;;6.20;72.97;101766.92;1763869;81;21275;-55
2021/10/27 07:58:22;;;;;;;21.62;11.60;;;;;;;6.38;72.48;101760.59;1767574;81;21173;-55
2021/10/27 08:01:28;;;;;;;20.75;10.70;;;;;;;6.54;71.95;101760.70;1769744;80;21288;-56
2021/10/27 08:04:34;;;;;;;16.23;10.28;;;;;;;6.68;71.13;101757.79;1759216;81;21175;-55
2021/10/27 08:07:39;;;;;;;14.18;8.83;;;;;;;6.80;70.47;101751.39;1767821;80;21812;-56
2021/10/27 08:10:46;;;;;;;19.73;9.40;;;;;;;6.92;69.87;101750.46;1767154;81;21208;-55
2021/10/27 08:13:55;;;;;;;15.10;8.58;;;;;;;7.04;69.11;101746.77;1757032;81;21749;-56
2021/10/27 08:17:04;;;;;;;12.75;8.03;;;;;;;7.13;68.51;101737.90;1754349;80;21319;-56
2021/10/27 08:20:10;;;;;;;12.45;7.00;;;;;;;7.24;67.77;101731.11;1766324;80;21534;-54
2021/10/27 08:23:15;;;;;;;15.78;8.10;;;;;;;7.34;67.20;101730.73;1770347;80;21212;-55
2021/10/27 08:26:24;;;;;;;21.45;7.65;;;;;;;7.42;66.83;101733.70;1767089;80;21217;-55
2021/10/27 08:29:37;;;;;;;14.05;7.65;;;;;;;7.55;66.77;101734.47;1770842;79;21852;-55
2021/10/27 08:32:48;;;;;;;11.03;7.58;;;;;;;7.67;65.81;101724.44;1770386;81;21204;-57
2021/10/27 08:35:49;;;;;;;13.70;8.10;;;;;;;7.78;65.08;101719.46;1770211;81;21968;-56
2021/10/27 08:39:00;;;;;;;12.95;6.87;;;;;;;7.89;64.46;101715.36;1770106;80;21694;-56
2021/10/27 08:42:13;;;;;;;13.43;7.20;;;;;;;8.08;64.27;101716.45;1770273;80;21738;-57
2021/10/27 08:45:18;;;;;;;13.80;6.90;;;;;;;8.30;63.90;101715.54;1740267;82;21229;-56
2021/10/27 08:48:25;;;;;;;12.37;7.42;;;;;;;8.51;63.27;101717.83;1740262;82;21216;-55
2021/10/27 08:51:34;;;;;;;11.90;6.58;;;;;;;8.71;62.80;101721.95;1740012;82;21363;-55
2021/10/27 08:54:41;;;;;;;12.82;6.83;;;;;;;8.85;62.07;101714.80;1740181;82;21816;-56
2021/10/27 08:57:51;;;;;;;15.93;6.78;;;;;;;9.00;61.55;101718.08;1744956;81;21259;-57
2021/10/27 09:07:54;;;;;;;11.33;6.92;;;;;;;9.35;59.73;101694.49;1709472;84;21179;-56
2021/10/27 09:42:25;;;;;;;11.65;6.25;;;;;;;10.32;56.35;101631.25;1731762;82;21192;-55
2021/10/27 10:05:59;;;;;;;14.13;7.65;;;;;;;11.29;54.77;101618.59;1750406;81;21205;-55
2021/10/27 10:09:09;;;;;;;11.18;6.58;;;;;;;11.38;54.42;101613.57;1761255;81;21546;-55
2021/10/27 10:12:14;;;;;;;12.03;7.35;;;;;;;11.44;54.04;101606.98;1761615;80;21201;-55
2021/10/27 10:15:22;;;;;;;12.55;7.17;;;;;;;11.48;53.72;101618.52;1761803;78;21722;-55
2021/10/27 10:18:31;;;;;;;14.30;7.45;;;;;;;11.53;53.60;101614.78;1756995;80;21718;-55
2021/10/27 10:21:38;;;;;;;16.80;7.67;;;;;;;11.55;53.38;101610.02;1766128;81;21351;-56
2021/10/27 10:24:45;;;;;;;15.70;10.03;;;;;;;11.61;53.64;101611.64;1769526;80;21888;-57
2021/10/27 10:27:51;;;;;;;15.53;8.73;;;;;;;11.62;53.20;101601.55;1748158;80;21675;-56
2021/10/27 10:31:01;;;;;;;13.95;8.78;;;;;;;11.56;53.00;101606.28;1769061;81;21438;-57
2021/10/27 10:34:11;;;;;;;16.62;9.63;;;;;;;11.49;53.19;101599.66;1764038;80;21181;-56
2021/10/27 10:37:44;;;;;;;23.80;12.82;;;;;;;11.46;53.31;101589.87;1771632;80;21205;-55
2021/10/27 10:58:09;;;;;;;23.18;11.65;;;;;;;11.00;53.87;101573.48;1708684;83;21741;-55
2021/10/27 11:38:50;;;;;;;15.40;8.65;;;;;;;10.59;55.90;101545.97;1717007;82;21250;-55
2021/10/27 11:45:10;;;;;;;20.23;11.25;;;;;;;10.66;55.94;101547.62;1695696;84;21760;-55
2021/10/27 11:48:27;;;;;;;17.37;9.43;;;;;;;10.68;56.03;101541.49;1756543;81;21188;-54
2021/10/27 11:51:29;;;;;;;17.10;9.98;;;;;;;10.71;55.80;101537.58;1756083;81;21312;-53
2021/10/27 11:54:34;;;;;;;35.85;17.75;;;;;;;10.73;55.76;101535.56;1716052;81;21204;-54
2021/10/27 11:57:43;;;;;;;25.68;12.68;;;;;;;10.75;55.75;101536.29;1692671;82;21249;-54
2021/10/27 12:00:52;;;;;;;24.00;11.48;;;;;;;10.80;55.80;101531.23;1728608;82;21222;-54
2021/10/27 12:03:58;;;;;;;20.70;11.40;;;;;;;10.85;55.73;101527.52;1683596;84;21204;-54
2021/10/27 12:07:22;;;;;;;20.12;11.15;;;;;;;10.92;55.64;101525.91;1756561;81;21220;-55
2021/10/27 12:10:40;;;;;;;17.30;9.68;;;;;;;11.01;55.50;101529.11;1733422;81;21266;-53
2021/10/27 12:13:43;;;;;;;13.53;8.00;;;;;;;11.09;55.46;101527.85;1693294;82;21212;-53
2021/10/27 12:19:51;;;;;;;89.97;41.33;;;;;;;11.25;55.07;101523.95;1688288;83;21222;-54
2021/10/27 12:23:03;;;;;;;178.12;87.80;;;;;;;11.38;55.02;101514.87;1708622;83;21746;-58
2021/10/27 12:26:17;;;;;;;196.23;83.57;;;;;;;11.48;54.80;101517.05;1707811;83;21554;-56
2021/10/27 12:29:26;;;;;;;;;;;;;;;11.50;54.41;101509.52;1763305;81;21579;-57
2021/10/27 12:32:32;;;;;;;85.97;44.85;;;;;;;11.49;54.40;101511.41;1761313;80;20207;-58
2021/10/27 12:35:39;;;;;;;166.32;92.42;;;;;;;11.48;54.41;101517.05;1767873;80;21718;-58
2021/10/27 12:39:31;;;;;;;67.27;33.20;;;;;;;11.47;54.49;101500.22;1769557;80;21185;-58
2021/10/27 12:42:38;;;;;;;86.35;40.92;;;;;;;11.44;54.43;101495.05;1761299;81;21720;-58
2021/10/27 12:45:55;;;;;;;127.30;58.73;;;;;;;11.54;54.76;101486.27;1760393;79;21240;-58
2021/10/27 12:49:01;;;;;;;23.77;12.78;;;;;;;11.68;54.42;101488.00;1739451;81;21185;-57
2021/10/27 12:52:35;;;;;;;39.78;17.98;;;;;;;11.83;54.04;101481.43;1766434;81;21184;-59
2021/10/27 12:55:44;;;;;;;148.28;56.85;;;;;;;11.97;53.77;101484.48;1760441;81;21224;-57
2021/10/27 12:58:57;;;;;;;114.90;47.75;;;;;;;12.11;53.45;101490.44;1758531;81;21490;-58
2021/10/27 13:02:05;;;;;;;88.65;37.50;;;;;;;12.18;53.11;101482.77;1756935;81;21205;-57
2021/10/27 13:05:15;;;;;;;30.77;14.50;;;;;;;12.25;52.94;101487.99;1753127;80;21710;-59
2021/10/27 13:15:11;;;;;;;40.00;20.00;;;;;;;12.42;52.34;101490.33;1741157;82;21426;-60
2021/10/27 13:18:43;;;;;;;67.60;31.05;;;;;;;12.47;52.21;101496.20;1746863;79;21280;-57
2021/10/27 13:21:49;;;;;;;58.38;27.22;;;;;;;12.46;51.96;101486.25;1749029;81;21223;-57
2021/10/27 13:31:40;;;;;;;50.30;25.48;;;;;;;12.34;52.06;101480.16;1754127;81;21737;-58
2021/10/27 13:34:45;;;;;;;67.03;34.27;;;;;;;12.22;52.32;101491.06;1765667;81;21265;-58
2021/10/27 13:37:51;;;;;;;38.90;19.45;;;;;;;12.15;52.54;101479.48;1767116;81;21251;-58
2021/10/27 13:41:00;;;;;;;33.73;17.23;;;;;;;12.14;52.64;101477.27;1765370;80;21189;-57
2021/10/27 13:44:13;;;;;;;20.43;11.48;;;;;;;12.13;52.85;101476.05;1755478;81;21558;-57
2021/10/27 13:47:23;;;;;;;13.90;8.08;;;;;;;12.08;52.97;101467.77;1756056;81;21204;-59
2021/10/27 14:07:30;;;;;;;17.70;10.20;;;;;;;11.50;54.14;101467.00;1760331;81;21243;-57
2021/10/27 14:11:02;;;;;;;30.12;17.90;;;;;;;11.37;54.39;101478.35;1732656;81;21228;-55
2021/10/27 14:14:10;;;;;;;35.08;21.12;;;;;;;11.24;54.73;101479.75;1746131;81;21193;-55
2021/10/27 14:17:42;;;;;;;33.30;18.25;;;;;;;11.11;55.07;101486.09;1753411;81;21206;-56
2021/10/27 14:47:50;;;;;;;42.13;35.80;;;;;;;9.44;59.01;101489.55;1756665;79;21217;-55
2021/10/27 15:21:26;;;;;;;254.82;122.28;;;;;;;7.99;63.70;101526.84;1693621;82;21218;-53
2021/10/27 15:24:38;;;;;;;177.00;89.22;;;;;;;7.89;64.11;101529.97;1740722;81;21721;-53
2021/10/27 15:41:08;;;;;;;438.22;195.40;;;;;;;7.20;65.71;101532.16;1771001;80;21216;-54
2021/10/27 15:44:23;;;;;;;321.35;143.95;;;;;;;7.10;66.06;101531.69;1771262;79;21194;-53
2021/10/27 15:50:54;;;;;;;311.82;158.52;;;;;;;6.93;66.56;101530.33;1751988;80;21516;-54
2021/10/27 15:53:55;;;;;;;217.45;121.25;;;;;;;6.81;66.73;101527.26;1729587;82;21752;-55
2021/10/27 15:57:00;;;;;;;291.57;147.55;;;;;;;6.74;67.38;101538.77;1748803;80;21245;-55
2021/10/27 16:00:05;;;;;;;310.85;147.43;;;;;;;6.71;67.89;101539.86;1723905;83;21185;-54
2021/10/27 16:03:11;;;;;;;291.80;143.47;;;;;;;6.67;68.09;101543.83;1725126;83;21244;-54
2021/10/27 16:06:23;;;;;;;295.12;143.05;;;;;;;6.62;68.25;101543.33;1725626;83;21363;-55
2021/10/27 16:09:30;;;;;;;176.02;85.00;;;;;;;6.60;68.72;101541.70;1710506;83;21206;-54
2021/10/27 16:12:34;;;;;;;456.67;212.85;;;;;;;6.60;69.27;101548.02;1724022;83;21754;-54
2021/10/27 16:15:51;;;;;;;447.70;217.75;;;;;;;6.62;69.57;101556.93;1724853;83;21237;-54
2021/10/27 16:18:50;;;;;;;467.03;227.40;;;;;;;6.63;69.81;101544.20;1724848;83;21193;-54
2021/10/27 16:21:57;;;;;;;355.32;155.60;;;;;;;6.65;70.01;101551.24;1728407;82;21737;-54
2021/10/27 16:25:02;;;;;;;356.77;162.32;;;;;;;6.65;70.12;101542.20;1732716;83;21224;-54
2021/10/27 16:28:08;;;;;;;404.32;191.43;;;;;;;6.63;69.90;101551.84;1735151;82;21713;-55
2021/10/27 16:31:14;;;;;;;400.18;184.90;;;;;;;6.56;69.71;101541.10;1733902;83;21216;-54
2021/10/27 16:34:20;;;;;;;320.63;146.20;;;;;;;6.48;69.49;101542.69;1733820;83;21166;-55
2021/10/27 16:37:31;;;;;;;286.73;128.97;;;;;;;6.38;69.60;101556.14;1734140;82;21232;-54
2021/10/27 16:40:39;;;;;;;310.30;142.62;;;;;;;6.30;69.94;101556.36;1734324;82;21220;-54
2021/10/27 16:43:44;;;;;;;341.57;160.15;;;;;;;6.22;69.90;101557.45;1737043;80;21204;-54
2021/10/27 16:46:50;;;;;;;325.87;149.75;;;;;;;6.09;69.83;101557.05;1742857;82;21193;-53
2021/10/27 16:49:57;;;;;;;262.90;126.02;;;;;;;5.97;69.93;101558.02;1742234;82;21331;-54
2021/10/27 16:53:02;;;;;;;226.32;109.85;;;;;;;5.84;70.16;101555.86;1742001;82;21308;-54
2021/10/27 16:56:09;;;;;;;207.90;99.60;;;;;;;5.72;70.33;101555.89;1743333;82;21387;-54
2021/10/27 16:59:16;;;;;;;204.23;98.47;;;;;;;5.58;70.65;101555.56;1743694;82;21867;-55
2021/10/27 17:02:24;;;;;;;233.80;113.83;;;;;;;5.48;71.06;101549.11;1742188;82;21296;-54
2021/10/27 17:05:31;;;;;;;243.80;117.53;;;;;;;5.37;71.17;101540.90;1742057;82;21749;-54
2021/10/27 17:08:36;;;;;;;293.70;137.03;;;;;;;5.25;71.41;101549.94;1741320;82;21887;-55
2021/10/27 17:11:44;;;;;;;292.80;139.97;;;;;;;5.16;71.73;101547.91;1705387;83;21210;-54
2021/10/27 17:14:50;;;;;;;304.00;141.95;;;;;;;5.09;71.99;101536.27;1732501;82;21216;-53
2021/10/27 17:17:56;;;;;;;300.32;145.68;;;;;;;5.03;72.13;101537.58;1741460;82;21346;-54
2021/10/27 17:21:05;;;;;;;328.40;157.30;;;;;;;4.99;72.19;101544.70;1742513;82;21197;-53
2021/10/27 17:24:14;;;;;;;326.30;159.72;;;;;;;4.95;72.25;101545.91;1739389;81;21200;-53
2021/10/27 17:27:17;;;;;;;317.87;153.35;;;;;;;4.92;72.35;101543.39;1740899;82;21199;-54
2021/10/27 17:30:25;;;;;;;320.93;156.72;;;;;;;4.92;72.48;101539.33;1740283;82;21201;-55
2021/10/27 17:33:33;;;;;;;329.43;155.15;;;;;;;4.90;72.38;101539.95;1740635;82;21196;-55
2021/10/27 17:36:39;;;;;;;320.37;158.57;;;;;;;4.90;72.39;101538.59;1740876;82;21202;-54
2021/10/27 17:39:48;;;;;;;305.77;148.68;;;;;;;4.89;72.44;101536.84;1741134;82;21209;-54
2021/10/27 17:42:54;;;;;;;294.52;139.05;;;;;;;4.92;72.78;101546.11;1741904;82;21824;-53
2021/10/27 17:46:03;;;;;;;275.68;131.65;;;;;;;4.97;73.01;101542.09;1740934;82;21366;-54
2021/10/27 17:49:17;;;;;;;267.25;125.82;;;;;;;5.03;73.10;101545.72;1740990;82;21184;-53
2021/10/27 17:58:53;;;;;;;266.33;122.30;;;;;;;5.13;73.32;101542.71;1740607;82;21263;-55
2021/10/27 18:02:00;;;;;;;263.77;124.97;;;;;;;5.16;73.46;101540.25;1740100;82;21749;-54
2021/10/27 18:05:07;;;;;;;255.37;120.62;;;;;;;5.17;73.36;101541.48;1740640;82;21220;-54
2021/10/27 18:08:15;;;;;;;272.90;125.07;;;;;;;5.17;73.32;101537.42;1740402;82;21690;-54
2021/10/27 18:11:24;;;;;;;277.22;127.27;;;;;;;5.20;73.47;101544.48;1762154;81;21191;-54
2021/10/27 18:14:32;;;;;;;271.23;124.72;;;;;;;5.22;73.25;101543.38;1770948;81;21201;-54
2021/10/27 18:17:40;;;;;;;237.50;111.12;;;;;;;5.23;73.30;101533.40;1770939;80;21840;-54
2021/10/27 18:20:47;;;;;;;213.25;100.07;;;;;;;5.26;73.45;101533.17;1771718;80;21201;-54
2021/10/27 18:37:29;;;;;;;266.98;122.33;;;;;;;5.59;73.83;101533.34;1771479;81;21165;-54
2021/10/27 18:43:55;;;;;;;261.50;124.10;;;;;;;5.60;73.65;101533.71;1770996;80;21213;-54
2021/10/27 18:47:01;;;;;;;260.20;123.97;;;;;;;5.59;73.71;101542.86;1770892;80;21288;-54
2021/10/27 18:50:08;;;;;;;281.50;132.70;;;;;;;5.60;73.81;101547.30;1727503;79;21367;-54
2021/10/27 18:53:24;;;;;;;274.05;132.97;;;;;;;5.59;73.86;101541.02;1725775;83;21351;-54
2021/10/27 18:56:58;;;;;;;231.63;114.35;;;;;;;5.57;73.85;101542.09;1726515;82;21366;-54